createdAt,value
2022-09-22T00:01:28.176Z,11.40
2022-09-22T00:03:58.578Z,11.40
2022-09-22T00:06:29.427Z,11.40
2022-09-22T00:09:00.681Z,11.40
2022-09-22T00:11:30.583Z,11.30
2022-09-22T00:14:00.886Z,11.30
2022-09-22T00:16:33.410Z,11.30
2022-09-22T00:19:01.857Z,11.30
2022-09-22T00:21:31.134Z,11.30
2022-09-22T00:24:01.918Z,11.30
2022-09-22T00:26:31.260Z,11.20
2022-09-22T00:29:01.819Z,11.20
2022-09-22T00:31:31.812Z,11.20
2022-09-22T00:34:00.206Z,11.20
2022-09-22T00:36:29.755Z,11.20
2022-09-22T00:38:59.045Z,11.20
2022-09-22T00:41:29.075Z,11.20
2022-09-22T00:44:39.495Z,11.10
2022-09-22T00:47:21.085Z,11.00
2022-09-22T00:49:55.180Z,11.10
2022-09-22T00:52:26.424Z,11.10
2022-09-22T00:54:57.958Z,11.00
2022-09-22T00:57:31.187Z,11.00
2022-09-22T01:00:00.722Z,11.00
2022-09-22T01:02:30.552Z,11.10
2022-09-22T01:04:59.263Z,11.10
2022-09-22T01:07:30.926Z,10.90
2022-09-22T01:09:59.941Z,10.90
2022-09-22T01:12:30.600Z,10.90
2022-09-22T01:15:21.124Z,10.90
2022-09-22T01:18:04.482Z,10.90
2022-09-22T01:20:57.272Z,10.90
2022-09-22T01:23:54.352Z,10.80
2022-09-22T01:26:42.505Z,10.80
2022-09-22T01:29:41.970Z,10.70
2022-09-22T01:32:19.492Z,10.80
2022-09-22T01:34:51.944Z,10.80
2022-09-22T01:37:26.025Z,10.80
2022-09-22T01:40:02.980Z,10.60
2022-09-22T01:42:38.381Z,10.60
2022-09-22T01:45:10.513Z,10.60
2022-09-22T01:47:47.439Z,10.50
2022-09-22T01:50:20.366Z,10.60
2022-09-22T01:52:49.344Z,10.50
2022-09-22T01:55:24.805Z,10.50
2022-09-22T01:57:57.848Z,10.50
2022-09-22T02:00:26.513Z,10.50
2022-09-22T02:03:02.019Z,10.50
2022-09-22T02:05:36.886Z,10.50
2022-09-22T02:08:11.167Z,10.50
2022-09-22T02:10:44.360Z,10.50
2022-09-22T02:13:12.772Z,10.50
2022-09-22T02:15:58.689Z,10.50
2022-09-22T02:18:31.561Z,10.40
2022-09-22T02:21:01.252Z,10.50
2022-09-22T02:23:32.155Z,10.40
2022-09-22T02:26:02.966Z,10.50
2022-09-22T02:28:33.006Z,10.40
2022-09-22T02:31:20.327Z,10.30
2022-09-22T02:33:51.792Z,10.30
2022-09-22T02:36:38.432Z,10.20
2022-09-22T02:39:09.975Z,10.20
2022-09-22T02:41:57.331Z,10.10
2022-09-22T02:44:30.550Z,10.10
2022-09-22T02:47:03.187Z,10.20
2022-09-22T02:49:32.911Z,10.20
2022-09-22T02:52:01.202Z,10.20
2022-09-22T02:54:29.414Z,10.10
2022-09-22T02:56:57.649Z,10.10
2022-09-22T02:59:25.909Z,10.00
2022-09-22T03:01:55.785Z,10.00
2022-09-22T03:04:24.312Z,9.90
2022-09-22T03:06:54.343Z,10.10
2022-09-22T03:09:22.690Z,10.00
2022-09-22T03:11:50.889Z,9.90
2022-09-22T03:14:19.114Z,10.00
2022-09-22T03:16:47.765Z,10.00
2022-09-22T03:19:16.005Z,9.90
2022-09-22T03:21:44.359Z,9.90
2022-09-22T03:24:13.907Z,10.00
2022-09-22T03:26:42.137Z,9.90
2022-09-22T03:29:10.492Z,9.90
2022-09-22T03:31:38.913Z,9.80
2022-09-22T03:34:07.260Z,9.80
2022-09-22T03:36:35.489Z,9.80
2022-09-22T03:39:04.052Z,9.80
2022-09-22T03:41:33.500Z,9.80
2022-09-22T03:44:01.830Z,9.70
2022-09-22T03:46:30.949Z,9.70
2022-09-22T03:48:59.203Z,9.70
2022-09-22T03:51:27.631Z,9.70
2022-09-22T03:53:56.907Z,9.80
2022-09-22T03:56:25.564Z,9.70
2022-09-22T03:58:55.133Z,9.60
2022-09-22T04:01:23.691Z,9.60
2022-09-22T04:03:53.142Z,9.70
2022-09-22T04:06:21.778Z,9.60
2022-09-22T04:08:50.213Z,9.60
2022-09-22T04:11:18.531Z,9.60
2022-09-22T04:13:47.025Z,9.60
2022-09-22T04:16:16.563Z,9.60
2022-09-22T04:18:45.251Z,9.50
2022-09-22T04:21:13.662Z,9.60
2022-09-22T04:23:42.051Z,9.50
2022-09-22T04:26:10.745Z,9.50
2022-09-22T04:28:39.106Z,9.50
2022-09-22T04:31:07.624Z,9.40
2022-09-22T04:33:38.546Z,9.50
2022-09-22T04:36:07.777Z,9.50
2022-09-22T04:38:35.938Z,9.50
2022-09-22T04:41:04.270Z,9.50
2022-09-22T04:43:32.553Z,9.50
2022-09-22T04:46:00.990Z,9.60
2022-09-22T04:48:29.516Z,9.60
2022-09-22T04:50:59.031Z,9.60
2022-09-22T04:53:27.266Z,9.70
2022-09-22T04:55:56.583Z,9.70
2022-09-22T04:58:24.915Z,9.70
2022-09-22T05:00:55.734Z,9.60
2022-09-22T05:03:24.090Z,9.50
2022-09-22T05:05:52.661Z,9.50
2022-09-22T05:08:22.326Z,9.50
2022-09-22T05:10:50.552Z,9.50
2022-09-22T05:13:19.242Z,9.40
2022-09-22T05:15:47.851Z,9.40
2022-09-22T05:18:16.190Z,9.30
2022-09-22T05:20:45.874Z,9.30
2022-09-22T05:23:14.162Z,9.30
2022-09-22T05:25:44.351Z,9.30
2022-09-22T05:28:13.582Z,9.30
2022-09-22T05:30:41.870Z,9.20
2022-09-22T05:33:10.252Z,9.20
2022-09-22T05:35:38.470Z,9.20
2022-09-22T05:38:06.848Z,9.20
2022-09-22T05:40:35.257Z,9.20
2022-09-22T05:43:04.869Z,9.20
2022-09-22T05:45:33.272Z,9.20
2022-09-22T05:48:01.960Z,9.10
2022-09-22T05:50:30.097Z,9.10
2022-09-22T05:53:06.020Z,9.10
2022-09-22T05:55:34.489Z,9.10
2022-09-22T05:58:05.007Z,9.20
2022-09-22T06:00:33.762Z,9.20
2022-09-22T06:03:02.350Z,9.30
2022-09-22T06:05:30.665Z,9.40
2022-09-22T06:08:03.498Z,9.40
2022-09-22T06:10:32.898Z,9.40
2022-09-22T06:13:01.490Z,9.40
2022-09-22T06:15:33.835Z,9.40
2022-09-22T06:18:02.443Z,9.40
2022-09-22T06:20:30.935Z,9.50
2022-09-22T06:22:59.980Z,9.60
2022-09-22T06:25:29.612Z,9.70
2022-09-22T06:28:02.306Z,9.80
2022-09-22T06:30:32.512Z,9.80
2022-09-22T06:33:01.014Z,9.90
2022-09-22T06:35:32.362Z,10.00
2022-09-22T06:38:01.027Z,10.00
2022-09-22T06:40:32.305Z,10.10
2022-09-22T06:43:02.190Z,10.20
2022-09-22T06:45:33.793Z,10.30
2022-09-22T06:48:07.592Z,10.40
2022-09-22T06:50:38.245Z,10.40
2022-09-22T06:53:08.194Z,10.50
2022-09-22T06:55:37.423Z,10.60
2022-09-22T06:58:05.768Z,10.60
2022-09-22T07:00:35.534Z,10.70
2022-09-22T07:03:07.168Z,10.80
2022-09-22T07:05:37.283Z,10.80
2022-09-22T07:08:06.284Z,10.90
2022-09-22T07:10:37.965Z,10.90
2022-09-22T07:13:07.203Z,11.00
2022-09-22T07:15:37.891Z,11.10
2022-09-22T07:18:06.699Z,11.10
2022-09-22T07:20:35.932Z,11.20
2022-09-22T07:23:04.324Z,11.20
2022-09-22T07:25:35.941Z,11.30
2022-09-22T07:28:05.246Z,11.40
2022-09-22T07:30:38.112Z,11.60
2022-09-22T07:33:07.790Z,11.60
2022-09-22T07:35:37.996Z,11.70
2022-09-22T07:38:06.220Z,11.80
2022-09-22T07:40:34.620Z,11.80
2022-09-22T07:43:02.967Z,12.00
2022-09-22T07:45:31.242Z,12.00
2022-09-22T07:48:16.972Z,12.10
2022-09-22T07:51:00.128Z,12.20
2022-09-22T07:53:28.546Z,12.20
2022-09-22T07:55:57.380Z,12.30
2022-09-22T07:58:25.978Z,12.30
2022-09-22T08:00:54.651Z,12.30
2022-09-22T08:03:23.075Z,12.40
2022-09-22T08:05:54.707Z,12.50
2022-09-22T08:08:23.132Z,12.50
2022-09-22T08:10:51.847Z,12.60
2022-09-22T08:13:21.926Z,12.70
2022-09-22T08:15:56.476Z,12.70
2022-09-22T08:18:26.155Z,12.80
2022-09-22T08:20:55.910Z,12.90
2022-09-22T08:23:24.356Z,13.00
2022-09-22T08:25:53.048Z,13.10
2022-09-22T08:28:21.452Z,13.30
2022-09-22T08:30:49.998Z,13.30
2022-09-22T08:33:18.444Z,13.30
2022-09-22T08:35:56.530Z,13.40
2022-09-22T08:38:25.715Z,13.50
2022-09-22T08:41:08.850Z,13.50
2022-09-22T08:43:44.429Z,13.60
2022-09-22T08:46:12.787Z,13.70
2022-09-22T08:49:02.661Z,13.70
2022-09-22T08:51:52.691Z,13.80
2022-09-22T08:54:23.355Z,13.80
2022-09-22T08:57:01.082Z,13.90
2022-09-22T08:59:34.740Z,14.00
2022-09-22T09:02:22.541Z,14.10
2022-09-22T09:05:05.007Z,14.10
2022-09-22T09:07:45.750Z,14.30
2022-09-22T09:10:29.114Z,14.40
2022-09-22T09:13:19.043Z,14.50
2022-09-22T09:16:02.778Z,14.50
2022-09-22T09:18:34.616Z,14.50
2022-09-22T09:21:07.188Z,14.60
2022-09-22T09:26:32.254Z,14.70
2022-09-22T09:29:04.853Z,14.90
2022-09-22T09:31:39.664Z,14.90
2022-09-22T09:34:13.458Z,15.00
2022-09-22T09:36:44.671Z,15.00
2022-09-22T09:39:15.861Z,15.10
2022-09-22T09:41:46.941Z,15.10
2022-09-22T09:44:20.442Z,15.30
2022-09-22T09:46:58.523Z,15.30
2022-09-22T09:49:26.941Z,15.50
2022-09-22T09:51:58.866Z,15.40
2022-09-22T09:54:29.057Z,15.60
2022-09-22T09:57:09.662Z,15.70
2022-09-22T09:59:56.105Z,15.60
2022-09-22T10:02:28.195Z,15.60
2022-09-22T10:04:59.659Z,15.70
2022-09-22T10:10:31.727Z,15.70
2022-09-22T10:13:21.667Z,16.00
2022-09-22T10:16:04.345Z,16.10
2022-09-22T10:18:37.684Z,16.10
2022-09-22T10:21:08.169Z,16.10
2022-09-22T10:23:36.568Z,16.10
2022-09-22T10:26:34.306Z,16.10
2022-09-22T10:29:16.713Z,16.30
2022-09-22T10:32:02.114Z,16.40
2022-09-22T10:34:33.568Z,16.70
2022-09-22T10:37:03.399Z,16.50
2022-09-22T10:39:37.719Z,16.50
2022-09-22T10:42:16.115Z,16.50
2022-09-22T10:44:48.499Z,16.60
2022-09-22T10:47:51.381Z,16.60
2022-09-22T10:50:51.249Z,16.50
2022-09-22T10:53:45.965Z,16.80
2022-09-22T10:56:27.261Z,16.70
2022-09-22T10:59:19.986Z,17.10
2022-09-22T11:01:55.877Z,17.20
2022-09-22T11:04:45.012Z,17.20
2022-09-22T11:07:55.645Z,17.30
2022-09-22T11:10:51.583Z,17.50
2022-09-22T11:13:37.216Z,17.20
2022-09-22T11:16:27.984Z,17.50
2022-09-22T11:19:27.408Z,17.40
2022-09-22T11:22:12.522Z,17.60
2022-09-22T11:25:01.107Z,17.50
2022-09-22T11:27:41.380Z,17.70
2022-09-22T11:30:20.552Z,17.90
2022-09-22T11:33:05.212Z,17.90
2022-09-22T11:36:11.962Z,17.80
2022-09-22T11:39:08.756Z,17.80
2022-09-22T11:41:42.206Z,17.70
2022-09-22T11:44:29.574Z,17.90
2022-09-22T11:47:17.503Z,18.00
2022-09-22T11:50:02.193Z,18.00
2022-09-22T11:52:43.763Z,18.00
2022-09-22T11:55:26.384Z,18.30
2022-09-22T11:58:00.323Z,18.40
2022-09-22T12:00:35.036Z,18.50
2022-09-22T12:03:08.472Z,18.40
2022-09-22T12:05:42.670Z,18.40
2022-09-22T12:08:14.607Z,18.40
2022-09-22T12:10:44.683Z,18.40
2022-09-22T12:13:15.463Z,18.60
2022-09-22T12:15:52.003Z,18.50
2022-09-22T12:18:25.977Z,18.60
2022-09-22T12:21:03.100Z,18.80
2022-09-22T12:23:39.191Z,18.70
2022-09-22T12:26:10.374Z,18.70
2022-09-22T12:28:44.137Z,18.70
2022-09-22T12:31:15.283Z,18.80
2022-09-22T12:33:49.921Z,18.80
2022-09-22T12:36:28.891Z,18.80
2022-09-22T12:39:09.729Z,18.90
2022-09-22T12:41:48.283Z,18.80
2022-09-22T12:44:22.825Z,18.90
2022-09-22T12:46:52.709Z,18.90
2022-09-22T12:49:23.532Z,18.80
2022-09-22T12:51:53.184Z,18.90
2022-09-22T12:54:40.490Z,18.90
2022-09-22T12:57:45.155Z,18.90
2022-09-22T13:00:23.008Z,18.90
2022-09-22T13:02:51.761Z,18.90
2022-09-22T13:05:46.797Z,18.80
2022-09-22T13:08:23.411Z,18.80
2022-09-22T13:11:00.093Z,18.80
2022-09-22T13:13:42.380Z,18.80
2022-09-22T13:16:35.937Z,18.90
2022-09-22T13:19:09.125Z,18.90
2022-09-22T13:21:41.605Z,18.90
2022-09-22T13:24:26.466Z,18.90
2022-09-22T13:27:05.715Z,18.90
2022-09-22T13:29:34.462Z,18.90
2022-09-22T13:32:18.358Z,18.90
2022-09-22T13:34:47.516Z,19.00
2022-09-22T13:37:19.075Z,19.00
2022-09-22T13:39:51.641Z,19.00
2022-09-22T13:42:23.411Z,18.90
2022-09-22T13:45:01.352Z,19.00
2022-09-22T13:47:30.688Z,19.00
2022-09-22T13:50:05.658Z,19.00
2022-09-22T13:52:36.942Z,19.00
2022-09-22T13:55:11.564Z,19.00
2022-09-22T13:57:41.710Z,19.00
2022-09-22T14:00:27.100Z,19.00
2022-09-22T14:02:57.866Z,19.00
2022-09-22T14:05:28.816Z,19.00
2022-09-22T14:08:12.059Z,19.00
2022-09-22T14:10:44.490Z,19.00
2022-09-22T14:13:40.599Z,19.10
2022-09-22T14:16:12.594Z,19.10
2022-09-22T14:18:44.172Z,19.10
2022-09-22T14:21:13.071Z,19.10
2022-09-22T14:23:46.474Z,19.10
2022-09-22T14:26:33.298Z,19.20
2022-09-22T14:29:15.282Z,19.10
2022-09-22T14:31:46.507Z,19.10
2022-09-22T14:34:22.186Z,19.10
2022-09-22T14:36:52.250Z,19.10
2022-09-22T14:39:29.306Z,19.10
2022-09-22T14:42:08.953Z,19.10
2022-09-22T14:44:43.548Z,19.10
2022-09-22T14:47:25.737Z,19.10
2022-09-22T14:50:13.836Z,19.20
2022-09-22T14:52:47.902Z,19.10
2022-09-22T14:55:29.136Z,19.20
2022-09-22T14:58:02.714Z,19.20
2022-09-22T15:00:48.809Z,19.20
2022-09-22T15:03:21.655Z,19.20
2022-09-22T15:05:51.463Z,19.20
2022-09-22T15:08:27.657Z,19.20
2022-09-22T15:10:57.941Z,19.20
2022-09-22T15:13:38.312Z,19.20
2022-09-22T15:16:07.472Z,19.20
2022-09-22T15:18:36.011Z,19.20
2022-09-22T15:21:11.390Z,19.20
2022-09-22T15:23:42.558Z,19.20
2022-09-22T15:26:17.865Z,19.20
2022-09-22T15:28:49.049Z,19.20
2022-09-22T15:31:26.642Z,19.20
2022-09-22T15:33:55.847Z,19.20
2022-09-22T15:36:25.658Z,19.20
2022-09-22T15:38:59.545Z,19.20
2022-09-22T15:41:28.161Z,19.20
2022-09-22T15:43:58.180Z,19.30
2022-09-22T15:46:33.970Z,19.30
2022-09-22T15:49:05.598Z,19.20
2022-09-22T15:51:34.089Z,19.20
2022-09-22T15:54:02.313Z,19.30
2022-09-22T15:56:32.004Z,19.30
2022-09-22T15:59:02.456Z,19.30
2022-09-22T16:01:30.880Z,19.20
2022-09-22T16:04:00.145Z,19.30
2022-09-22T16:06:29.153Z,19.30
2022-09-22T16:08:58.484Z,19.30
2022-09-22T16:11:29.679Z,19.30
2022-09-22T16:14:00.665Z,19.30
2022-09-22T16:16:30.548Z,19.30
2022-09-22T16:18:59.501Z,19.30
2022-09-22T16:21:29.377Z,19.30
2022-09-22T16:24:03.434Z,19.30
2022-09-22T16:26:33.520Z,19.30
2022-09-22T16:29:02.772Z,19.30
2022-09-22T16:31:32.795Z,19.30
2022-09-22T16:34:03.292Z,19.40
2022-09-22T16:36:34.522Z,19.30
2022-09-22T16:39:03.538Z,19.40
2022-09-22T16:41:33.179Z,19.40
2022-09-22T16:44:02.548Z,19.40
2022-09-22T16:46:34.376Z,19.50
2022-09-22T16:49:05.266Z,19.40
2022-09-22T16:51:35.513Z,19.40
2022-09-22T16:54:05.629Z,19.40
2022-09-22T16:56:35.971Z,19.30
2022-09-22T16:59:04.221Z,19.30
2022-09-22T17:01:36.430Z,19.30
2022-09-22T17:04:06.114Z,19.30
2022-09-22T17:06:36.097Z,19.40
2022-09-22T17:09:04.813Z,19.30
2022-09-22T17:11:36.292Z,19.20
2022-09-22T17:14:12.103Z,19.20
2022-09-22T17:16:43.361Z,19.20
2022-09-22T17:19:13.408Z,19.20
2022-09-22T17:21:41.773Z,19.00
2022-09-22T17:24:10.624Z,19.00
2022-09-22T17:26:41.248Z,18.90
2022-09-22T17:29:10.880Z,18.80
2022-09-22T17:31:41.208Z,18.80
2022-09-22T17:34:12.783Z,18.80
2022-09-22T17:36:41.782Z,18.80
2022-09-22T17:39:10.735Z,18.70
2022-09-22T17:41:45.455Z,18.70
2022-09-22T17:44:14.760Z,18.60
2022-09-22T17:47:05.331Z,18.50
2022-09-22T17:49:52.618Z,18.50
2022-09-22T17:52:38.542Z,18.40
2022-09-22T17:55:11.772Z,18.40
2022-09-22T17:57:42.074Z,18.30
2022-09-22T18:00:13.200Z,18.30
2022-09-22T18:02:41.768Z,18.20
2022-09-22T18:05:13.770Z,18.20
2022-09-22T18:07:43.556Z,18.20
2022-09-22T18:10:14.453Z,18.20
2022-09-22T18:12:43.440Z,18.10
2022-09-22T18:15:13.878Z,18.10
2022-09-22T18:17:43.281Z,18.00
2022-09-22T18:20:15.686Z,17.90
2022-09-22T18:22:48.366Z,17.90
2022-09-22T18:25:19.120Z,17.80
2022-09-22T18:27:48.570Z,17.80
2022-09-22T18:30:19.163Z,17.80
2022-09-22T18:32:47.579Z,17.70
2022-09-22T18:35:17.505Z,17.70
2022-09-22T18:37:46.589Z,17.60
2022-09-22T18:40:16.836Z,17.60
2022-09-22T18:42:45.346Z,17.50
2022-09-22T18:45:14.170Z,17.40
2022-09-22T18:47:43.764Z,17.30
2022-09-22T18:50:12.771Z,17.30
2022-09-22T18:52:45.980Z,17.20
2022-09-22T18:55:17.304Z,17.10
2022-09-22T18:57:47.455Z,17.00
2022-09-22T19:00:16.416Z,17.00
2022-09-22T19:02:45.071Z,17.00
2022-09-22T19:05:13.487Z,17.00
2022-09-22T19:07:46.917Z,16.90
2022-09-22T19:10:18.793Z,16.90
2022-09-22T19:12:47.027Z,16.80
2022-09-22T19:15:18.829Z,16.80
2022-09-22T19:17:48.777Z,16.70
2022-09-22T19:20:18.468Z,16.60
2022-09-22T19:22:49.331Z,16.60
2022-09-22T19:25:18.443Z,16.50
2022-09-22T19:27:46.863Z,16.50
2022-09-22T19:30:17.654Z,16.40
2022-09-22T19:32:47.929Z,16.40
2022-09-22T19:35:16.377Z,16.40
2022-09-22T19:37:44.624Z,16.30
2022-09-22T19:40:18.661Z,16.20
2022-09-22T19:42:47.870Z,16.10
2022-09-22T19:45:16.304Z,16.10
2022-09-22T19:47:44.924Z,16.10
2022-09-22T19:50:13.607Z,16.00
2022-09-22T19:52:42.023Z,16.00
2022-09-22T19:55:11.588Z,16.00
2022-09-22T19:57:42.401Z,16.00
2022-09-22T20:00:17.186Z,15.80
2022-09-22T20:02:46.042Z,15.80
2022-09-22T20:05:20.813Z,15.80
2022-09-22T20:07:49.168Z,15.80
2022-09-22T20:10:18.998Z,15.70
2022-09-22T20:12:48.634Z,15.60
2022-09-22T20:15:17.132Z,15.70
2022-09-22T20:17:46.700Z,15.60
2022-09-22T20:20:16.903Z,15.50
2022-09-22T20:22:47.226Z,15.50
2022-09-22T20:25:23.073Z,15.50
2022-09-22T20:27:53.019Z,15.40
2022-09-22T20:30:21.894Z,15.30
2022-09-22T20:32:50.408Z,15.30
2022-09-22T20:35:21.900Z,15.30
2022-09-22T20:37:51.748Z,15.30
2022-09-22T20:40:23.123Z,15.20
2022-09-22T20:42:55.241Z,15.10
2022-09-22T20:45:24.506Z,15.00
2022-09-22T20:47:52.945Z,15.00
2022-09-22T20:50:22.147Z,15.00
2022-09-22T20:52:50.588Z,14.90
2022-09-22T20:55:18.984Z,14.90
2022-09-22T20:57:47.238Z,14.90
2022-09-22T21:00:16.948Z,14.80
2022-09-22T21:02:46.186Z,14.70
2022-09-22T21:05:14.462Z,14.70
2022-09-22T21:07:43.143Z,14.60
2022-09-22T21:10:29.183Z,14.60
2022-09-22T21:13:00.483Z,14.50
2022-09-22T21:15:31.615Z,14.40
2022-09-22T21:18:00.293Z,14.50
2022-09-22T21:20:28.914Z,14.50
2022-09-22T21:22:57.034Z,14.40
2022-09-22T21:25:26.110Z,14.30
2022-09-22T21:27:54.338Z,14.30
2022-09-22T21:30:22.843Z,14.30
2022-09-22T21:32:52.218Z,14.30
2022-09-22T21:35:20.416Z,14.30
2022-09-22T21:37:48.842Z,14.30
2022-09-22T21:40:18.147Z,14.20
2022-09-22T21:42:47.085Z,14.30
2022-09-22T21:45:15.464Z,14.30
2022-09-22T21:47:44.528Z,14.30
2022-09-22T21:50:14.099Z,14.20
2022-09-22T21:52:44.849Z,14.20
2022-09-22T21:55:13.229Z,14.10
2022-09-22T21:57:41.801Z,14.10
2022-09-22T22:00:10.927Z,14.00
2022-09-22T22:02:52.964Z,14.00
2022-09-22T22:05:22.519Z,13.90
2022-09-22T22:07:50.927Z,13.80
2022-09-22T22:10:19.286Z,13.90
2022-09-22T22:12:47.654Z,13.80
2022-09-22T22:15:16.184Z,13.80
2022-09-22T22:17:44.530Z,13.80
2022-09-22T22:20:12.944Z,13.80
2022-09-22T22:22:42.420Z,13.80
2022-09-22T22:25:17.197Z,13.70
2022-09-22T22:27:46.603Z,13.70
2022-09-22T22:30:14.918Z,13.70
2022-09-22T22:32:43.365Z,13.70
2022-09-22T22:35:12.366Z,13.70
2022-09-22T22:37:45.928Z,13.70
2022-09-22T22:40:14.599Z,13.60
2022-09-22T22:42:42.989Z,13.60
2022-09-22T22:45:12.052Z,13.60
2022-09-22T22:47:40.279Z,13.60
2022-09-22T22:50:09.852Z,13.50
2022-09-22T22:52:42.088Z,13.50
2022-09-22T22:55:11.789Z,13.60
2022-09-22T22:57:40.179Z,13.50
2022-09-22T23:00:09.695Z,13.40
2022-09-22T23:02:38.640Z,13.50
2022-09-22T23:05:07.679Z,13.50
2022-09-22T23:07:36.575Z,13.40
2022-09-22T23:10:07.209Z,13.50
2022-09-22T23:12:40.096Z,13.40
2022-09-22T23:15:10.832Z,13.40
2022-09-22T23:17:39.937Z,13.40
2022-09-22T23:20:08.999Z,13.40
2022-09-22T23:22:37.171Z,13.40
2022-09-22T23:25:05.889Z,13.40
2022-09-22T23:27:34.283Z,13.40
2022-09-22T23:30:03.810Z,13.40
2022-09-22T23:32:32.141Z,13.40
2022-09-22T23:35:00.445Z,13.30
2022-09-22T23:37:28.766Z,13.30
2022-09-22T23:39:57.200Z,13.20
2022-09-22T23:42:25.481Z,13.20
2022-09-22T23:44:53.856Z,13.10
2022-09-22T23:47:23.636Z,13.00
2022-09-22T23:49:51.797Z,13.10
2022-09-22T23:52:22.251Z,13.00
2022-09-22T23:54:50.428Z,13.00
2022-09-22T23:57:19.099Z,12.90
2022-09-22T23:59:47.356Z,12.80
